Have a Safe July 4th! 

Flight Track Log - Related Links

Times and Time Zones

All times are in EDT time to prevent confusion due to time zone crossing. See the FDX77 flight status page for this flight to view local times or setup timezone preferences in your user account.

Time Position Orientation Groundspeed Altitude Reporting Facility
EDT Latitude Longitude Course Direction KTS MPH feet Rate Location/Type
Wed 03:44:49 PM 21.3000 -157.8833 163° South 190 219 900  Level Honolulu Center
Wed 03:45:49 PM 21.2500 -157.8667 163° South 200 230 2,800 1,500 Climbing Honolulu Center
Wed 03:46:49 PM 21.2000 -157.9167 223° Southwest 260 299 3,900 1,571 Climbing Honolulu Center
Wed 03:52:07 PM 20.8950 -158.3030 223° Southwest 401 461 12,700 1,560 Climbing FlightAware ADS-B
Wed 03:53:02 PM 20.8120 -158.3890 224° Southwest 446 513 13,600 1,200 Climbing FlightAware ADS-B
Wed 03:53:37 PM 20.7640 -158.4380 224° Southwest 458 527 14,500 1,533 Climbing FlightAware ADS-B
Wed 03:54:32 PM 20.6820 -158.5220 224° Southwest 453 521 15,900 2,000 Climbing FlightAware ADS-B
Wed 03:55:22 PM 20.6020 -158.6040 224° Southwest 463 533 18,000 1,620 Climbing FlightAware ADS-B
Wed 03:56:12 PM 20.5210 -158.6870 224° Southwest 471 542 18,600 1,575 Climbing FlightAware ADS-B
Wed 03:56:42 PM 20.4780 -158.7320 224° Southwest 476 548 20,100 1,950 Climbing FlightAware ADS-B
Wed 03:57:32 PM 20.3970 -158.8150 224° Southwest 485 558 21,200 1,314 Climbing FlightAware ADS-B
Wed 03:58:27 PM 20.3050 -158.9090 224° Southwest 495 570 22,400 1,364 Climbing FlightAware ADS-B
Wed 03:59:22 PM 20.2120 -159.0040 224° Southwest 496 571 23,700 1,000 Climbing FlightAware ADS-B
Wed 03:59:57 PM 20.1490 -159.0680 224° Southwest 504 580 23,900 1,482 Climbing FlightAware ADS-B
Wed 04:00:47 PM 20.0690 -159.1490 224° Southwest 499 574 25,800 2,267 Climbing FlightAware ADS-B
Wed 04:01:27 PM 20.0050 -159.2140 224° Southwest 485 558 27,300 1,950 Climbing FlightAware ADS-B
Wed 04:02:07 PM 19.9320 -159.2880 224° Southwest 482 555 28,400 1,440 Climbing FlightAware ADS-B
Wed 04:02:42 PM 19.8730 -159.3470 223° Southwest 482 555 29,100 1,067 Climbing FlightAware ADS-B
Wed 04:03:37 PM 19.7970 -159.4250 224° Southwest 482 555 30,000 600 Climbing FlightAware ADS-B
Wed 04:04:12 PM 19.7380 -159.4860 224° Southwest 483 556 30,000  Level FlightAware ADS-B
Wed 04:04:57 PM 19.6620 -159.5610 223° Southwest 479 551 30,000  Level FlightAware ADS-B
Wed 04:05:37 PM 19.5990 -159.6260 224° Southwest 478 550 30,000  Level FlightAware ADS-B
Wed 04:06:22 PM 19.5340 -159.6920 224° Southwest 478 550 30,000  Level FlightAware ADS-B
Wed 04:07:02 PM 19.4800 -159.7470 224° Southwest 478 550 30,000  Level FlightAware ADS-B
Wed 04:07:42 PM 19.4260 -159.8030 224° Southwest 478 550 30,000  Level FlightAware ADS-B
Wed 04:08:52 PM 19.2850 -159.9400 223° Southwest 30,000  Level FlightAware ADS-B
Wed 04:09:52 PM 19.1940 -160.0340 224° Southwest 477 549 30,000  Level FlightAware ADS-B
Wed 04:10:32 PM 19.1190 -160.1070 223° Southwest 475 547 30,000  Level FlightAware ADS-B
Wed 04:11:17 PM 19.0520 -160.1740 223° Southwest 475 547 30,000  Level FlightAware ADS-B
Wed 04:11:47 PM 19.0040 -160.2230 224° Southwest 475 547 30,000  Level FlightAware ADS-B
Wed 04:12:32 PM 18.9350 -160.2900 223° Southwest 476 548 30,000  Level FlightAware ADS-B
Wed 04:13:17 PM 18.8700 -160.3570 224° Southwest 476 548 30,000  Level FlightAware ADS-B
Wed 04:14:02 PM 18.7940 -160.4330 223° Southwest 476 548 30,000  Level FlightAware ADS-B
Wed 04:14:37 PM 18.7360 -160.4900 223° Southwest 476 548 30,000  Level FlightAware ADS-B
Wed 04:15:27 PM 18.6690 -160.5590 224° Southwest 476 548 30,000  Level FlightAware ADS-B
Wed 04:16:07 PM 18.6150 -160.6140 224° Southwest 476 548 30,000  Level FlightAware ADS-B
Wed 04:16:47 PM 18.5610 -160.6690 224° Southwest 476 548 30,000  Level FlightAware ADS-B
Wed 04:17:27 PM 18.5070 -160.7230 223° Southwest 476 548 30,000  Level FlightAware ADS-B
Wed 04:18:17 PM 18.4400 -160.7920 224° Southwest 476 548 30,000  Level FlightAware ADS-B
Wed 04:18:57 PM 18.3860 -160.8470 224° Southwest 476 548 30,000  Level FlightAware ADS-B
Wed 04:19:01 PM 18.4000 -160.8167 226° Southwest 484 557 30,000  Level Oakland Oceanic (ODAPS)
Wed 04:19:26 PM 18.2667 -160.9667 226° Southwest 483 556 30,000  Level Oakland Oceanic (ODAPS)
Wed 04:19:37 PM 18.3320 -160.9020 224° Southwest 476 548 30,000  Level FlightAware ADS-B
Wed 04:20:17 PM 18.2780 -160.9560 224° Southwest 476 548 30,000  Level FlightAware ADS-B
Wed 04:20:57 PM 18.2240 -161.0110 224° Southwest 476 548 30,000  Level FlightAware ADS-B
Wed 04:21:37 PM 18.1710 -161.0660 225° Southwest 476 548 30,000  Level FlightAware ADS-B
Wed 04:22:27 PM 18.1030 -161.1340 224° Southwest 476 548 30,000  Level FlightAware ADS-B
Wed 04:23:07 PM 18.0490 -161.1890 224° Southwest 476 548 30,000  Level FlightAware ADS-B
Wed 04:23:47 PM 17.9960 -161.2440 225° Southwest 476 548 30,000  Level FlightAware ADS-B
Wed 04:25:00 PM 17.7136 -161.5750 226° Southwest 483 556 30,000  Level FlightAware Transoceanic
Wed 04:26:00 PM 17.6213 -161.6761 226° Southwest 483 556 30,000  Level FlightAware Transoceanic
Wed 04:27:00 PM 17.5289 -161.7770 226° Southwest 483 556 30,000  Level FlightAware Transoceanic
Wed 04:28:00 PM 17.4364 -161.8778 226° Southwest 483 556 30,000  Level FlightAware Transoceanic
Wed 04:29:00 PM 17.3439 -161.9785 226° Southwest 483 556 30,000  Level FlightAware Transoceanic
Wed 04:30:00 PM 17.2513 -162.0791 226° Southwest 483 556 30,000  Level FlightAware Transoceanic
Wed 04:31:00 PM 17.1587 -162.1796 226° Southwest 483 556 30,000  Level FlightAware Transoceanic
Wed 04:32:00 PM 17.0661 -162.2800 226° Southwest 483 556 30,000  Level FlightAware Transoceanic
Wed 04:33:00 PM 16.9734 -162.3804 226° Southwest 483 556 30,000  Level FlightAware Transoceanic
Wed 04:33:17 PM 17.0667 -162.2833 226° Southwest 483 556 30,000  Level Oakland Oceanic (ODAPS)
Wed 04:33:31 PM 17.0000 -162.3500 226° Southwest 484 557 30,000  Level Oakland Oceanic (ODAPS)
Wed 04:34:00 PM 16.8806 -162.4806 226° Southwest 483 556 30,000  Level FlightAware Transoceanic
Wed 04:35:00 PM 16.7878 -162.5807 226° Southwest 483 556 30,000  Level FlightAware Transoceanic
Wed 04:36:00 PM 16.6949 -162.6807 226° Southwest 483 556 30,000  Level FlightAware Transoceanic
Wed 04:37:00 PM 16.6020 -162.7806 226° Southwest 483 556 30,000  Level FlightAware Transoceanic
Wed 04:38:00 PM 16.5091 -162.8805 226° Southwest 483 556 30,000  Level FlightAware Transoceanic
Wed 04:39:00 PM 16.4382 -162.9552 226° Southwest 484 557 30,000  Level FlightAware Transoceanic
Wed 04:40:00 PM 16.3444 -163.0557 226° Southwest 484 557 30,000  Level FlightAware Transoceanic
Wed 04:41:00 PM 16.2506 -163.1561 226° Southwest 484 557 30,000  Level FlightAware Transoceanic
Wed 04:42:00 PM 16.1567 -163.2565 226° Southwest 484 557 30,000  Level FlightAware Transoceanic
Wed 04:43:00 PM 16.0628 -163.3567 226° Southwest 484 557 30,000  Level FlightAware Transoceanic
Wed 04:44:00 PM 15.9688 -163.4568 226° Southwest 484 557 30,000  Level FlightAware Transoceanic
Wed 04:45:00 PM 15.8748 -163.5569 226° Southwest 484 557 30,000  Level FlightAware Transoceanic
Wed 04:46:00 PM 15.7807 -163.6568 226° Southwest 484 557 30,000  Level FlightAware Transoceanic
Wed 04:47:00 PM 15.6865 -163.7567 226° Southwest 484 557 30,000  Level FlightAware Transoceanic
Wed 04:47:10 PM 15.7167 -163.7333 225° Southwest 483 556 30,000  Level Oakland Oceanic (ODAPS)
Wed 04:48:00 PM 15.5924 -163.8564 226° Southwest 484 557 30,000  Level FlightAware Transoceanic
Wed 04:49:00 PM 15.4982 -163.9561 226° Southwest 484 557 30,000  Level FlightAware Transoceanic
Wed 04:50:00 PM 15.4039 -164.0557 226° Southwest 484 557 30,000  Level FlightAware Transoceanic
Wed 04:51:00 PM 15.3096 -164.1552 225° Southwest 484 557 30,000  Level FlightAware Transoceanic
Wed 04:52:00 PM 15.2153 -164.2546 225° Southwest 484 557 30,000  Level FlightAware Transoceanic
Wed 04:53:00 PM 15.1424 -164.3373 225° Southwest 483 556 30,000  Level FlightAware Transoceanic
Wed 04:54:00 PM 15.0466 -164.4377 225° Southwest 483 556 30,000  Level FlightAware Transoceanic
Wed 04:55:00 PM 14.9507 -164.5379 225° Southwest 483 556 30,000  Level FlightAware Transoceanic
Wed 04:56:00 PM 14.8547 -164.6381 225° Southwest 483 556 30,000  Level FlightAware Transoceanic
Wed 04:57:00 PM 14.7587 -164.7382 225° Southwest 483 556 30,000  Level FlightAware Transoceanic
Wed 04:58:00 PM 14.6627 -164.8382 225° Southwest 483 556 30,000  Level FlightAware Transoceanic
Wed 04:59:00 PM 14.5666 -164.9381 225° Southwest 483 556 30,000  Level FlightAware Transoceanic
Wed 05:00:00 PM 14.4705 -165.0379 225° Southwest 483 556 30,000  Level FlightAware Transoceanic
Wed 05:01:00 PM 14.3743 -165.1376 225° Southwest 483 556 30,000  Level FlightAware Transoceanic
Wed 05:01:02 PM 14.4000 -165.1000 226° Southwest 492 566 30,000  Level Oakland Oceanic (ODAPS)
Wed 05:02:00 PM 14.2781 -165.2372 225° Southwest 483 556 30,000  Level FlightAware Transoceanic
Wed 05:03:00 PM 14.1819 -165.3368 225° Southwest 483 556 30,000  Level FlightAware Transoceanic
Wed 05:04:00 PM 14.0856 -165.4363 225° Southwest 483 556 30,000  Level FlightAware Transoceanic
Wed 05:05:00 PM 13.9892 -165.5357 225° Southwest 483 556 30,000  Level FlightAware Transoceanic
Wed 05:06:00 PM 13.8929 -165.6350 225° Southwest 483 556 30,000  Level FlightAware Transoceanic
Wed 05:07:00 PM 13.8001 -165.7288 225° Southwest 492 566 30,000  Level FlightAware Transoceanic
Wed 05:08:00 PM 13.7000 -165.8333 225° Southwest 492 566 30,000  Level FlightAware Transoceanic
Wed 05:08:19 PM 13.7000 -165.8333 225° Southwest 484 557 30,000  Level Oakland Oceanic (ODAPS)
Wed 05:09:00 PM 13.6048 -165.9314 225° Southwest 492 566 30,000  Level FlightAware Transoceanic
Wed 05:10:00 PM 13.5096 -166.0293 225° Southwest 492 566 30,000  Level FlightAware Transoceanic
Wed 05:11:00 PM 13.4143 -166.1272 225° Southwest 492 566 30,000  Level FlightAware Transoceanic
Wed 05:12:00 PM 13.3191 -166.2250 225° Southwest 492 566 30,000  Level FlightAware Transoceanic
Wed 05:13:00 PM 13.2237 -166.3227 225° Southwest 492 566 30,000  Level FlightAware Transoceanic
Wed 05:14:00 PM 13.1284 -166.4203 225° Southwest 484 557 30,000  Level FlightAware Transoceanic
Wed 05:14:54 PM 13.0833 -166.4667 225° Southwest 484 557 30,000  Level Oakland Oceanic (ODAPS)
Wed 05:15:00 PM 13.0330 -166.5179 225° Southwest 484 557 30,000  Level FlightAware Transoceanic
Wed 05:16:00 PM 12.9375 -166.6154 225° Southwest 484 557 30,000  Level FlightAware Transoceanic
Wed 05:17:00 PM 12.8420 -166.7128 225° Southwest 484 557 30,000  Level FlightAware Transoceanic
Wed 05:18:00 PM 12.7465 -166.8102 225° Southwest 484 557 30,000  Level FlightAware Transoceanic
Wed 05:19:00 PM 12.6510 -166.9074 225° Southwest 484 557 30,000  Level FlightAware Transoceanic
Wed 05:20:00 PM 12.5554 -167.0046 225° Southwest 484 557 30,000  Level FlightAware Transoceanic
Wed 05:21:00 PM 12.5032 -167.0579 225° Southwest 484 557 30,000  Level FlightAware Transoceanic
Wed 05:22:00 PM 12.4064 -167.1561 225° Southwest 484 557 30,000  Level FlightAware Transoceanic
Wed 05:23:00 PM 12.3096 -167.2543 225° Southwest 484 557 30,000  Level FlightAware Transoceanic
Wed 05:24:00 PM 12.2127 -167.3525 225° Southwest 484 557 30,000  Level FlightAware Transoceanic
Wed 05:25:00 PM 12.1158 -167.4505 225° Southwest 484 557 30,000  Level FlightAware Transoceanic
Wed 05:26:00 PM 12.0188 -167.5485 225° Southwest 484 557 30,000  Level FlightAware Transoceanic
Wed 05:27:00 PM 11.9218 -167.6464 225° Southwest 484 557 30,000  Level FlightAware Transoceanic
Wed 05:28:00 PM 11.8248 -167.7442 225° Southwest 484 557 30,000 1,132 Level FlightAware Transoceanic
Wed 05:28:46 PM 11.8167 -167.7667 224° Southwest 470 541 32,000  Climbing Oakland Oceanic (ODAPS)
Wed 05:29:00 PM 11.7277 -167.8420 225° Southwest 484 557 30,000 -1,622 Descending FlightAware Transoceanic
Wed 05:30:00 PM 11.6307 -167.9397 225° Southwest 484 557 30,000  Level FlightAware Transoceanic
Wed 05:31:00 PM 11.5336 -168.0374 225° Southwest 484 557 30,000  Level FlightAware Transoceanic
Wed 05:32:00 PM 11.4364 -168.1349 225° Southwest 484 557 30,000  Level FlightAware Transoceanic
Wed 05:33:00 PM 11.3392 -168.2324 225° Southwest 484 557 30,000  Level FlightAware Transoceanic
Wed 05:34:00 PM 11.2420 -168.3299 224° Southwest 484 557 30,000 1,000 Level FlightAware Transoceanic
Wed 05:35:00 PM 11.2542 -168.3291 224° Southwest 470 541 32,000 1,000 Climbing FlightAware Transoceanic
Wed 05:36:00 PM 11.1604 -168.4226 224° Southwest 470 541 32,000  Level FlightAware Transoceanic
Wed 05:37:00 PM 11.0665 -168.5160 224° Southwest 470 541 32,000  Level FlightAware Transoceanic
Wed 05:38:00 PM 10.9726 -168.6094 224° Southwest 470 541 32,000  Level FlightAware Transoceanic
Wed 05:39:00 PM 10.8787 -168.7027 224° Southwest 470 541 32,000  Level FlightAware Transoceanic
Wed 05:40:00 PM 10.7847 -168.7960 224° Southwest 470 541 32,000  Level FlightAware Transoceanic
Wed 05:41:00 PM 10.6907 -168.8892 224° Southwest 470 541 32,000  Level FlightAware Transoceanic
Wed 05:42:00 PM 10.5967 -168.9824 224° Southwest 470 541 32,000  Level FlightAware Transoceanic
Wed 05:42:38 PM 10.5167 -169.0500 224° Southwest 469 540 32,000  Level Oakland Oceanic (ODAPS)
Wed 05:43:00 PM 10.5027 -169.0755 224° Southwest 470 541 32,000  Level FlightAware Transoceanic
Wed 05:44:00 PM 10.4086 -169.1685 224° Southwest 470 541 32,000  Level FlightAware Transoceanic
Wed 05:45:00 PM 10.3145 -169.2615 224° Southwest 470 541 32,000  Level FlightAware Transoceanic
Wed 05:46:00 PM 10.2204 -169.3545 224° Southwest 470 541 32,000  Level FlightAware Transoceanic
Wed 05:47:00 PM 10.1262 -169.4473 224° Southwest 470 541 32,000  Level FlightAware Transoceanic
Wed 05:48:00 PM 10.0420 -169.5222 224° Southwest 469 540 32,000  Level FlightAware Transoceanic
Wed 05:49:00 PM 9.9469 -169.6165 224° Southwest 469 540 32,000  Level FlightAware Transoceanic
Wed 05:50:00 PM 9.8519 -169.7107 224° Southwest 469 540 32,000  Level FlightAware Transoceanic
Wed 05:51:00 PM 9.7568 -169.8049 224° Southwest 469 540 32,000  Level FlightAware Transoceanic
Wed 05:52:00 PM 9.6617 -169.8990 224° Southwest 469 540 32,000  Level FlightAware Transoceanic
Wed 05:53:00 PM 9.5666 -169.9930 224° Southwest 469 540 32,000  Level FlightAware Transoceanic
Wed 05:54:00 PM 9.4714 -170.0870 224° Southwest 469 540 32,000  Level FlightAware Transoceanic
Wed 05:55:00 PM 9.3763 -170.1810 224° Southwest 469 540 32,000  Level FlightAware Transoceanic
Wed 05:56:00 PM 9.2810 -170.2749 224° Southwest 469 540 32,000  Level FlightAware Transoceanic
Wed 05:56:29 PM 9.2333 -170.3333 223° Southwest 476 548 32,000  Level Oakland Oceanic (ODAPS)
Wed 05:57:00 PM 9.1858 -170.3687 224° Southwest 469 540 32,000  Level FlightAware Transoceanic
Wed 05:58:00 PM 9.0906 -170.4626 224° Southwest 469 540 32,000  Level FlightAware Transoceanic
Wed 05:59:00 PM 8.9953 -170.5563 224° Southwest 469 540 32,000  Level FlightAware Transoceanic
Wed 06:00:00 PM 8.9000 -170.6500 224° Southwest 469 540 32,000  Level FlightAware Transoceanic
Wed 06:00:07 PM 8.9000 -170.6500 224° Southwest 481 554 32,000  Level Oakland Oceanic (ODAPS)
Wed 06:01:00 PM 8.8028 -170.7450 224° Southwest 469 540 32,000  Level FlightAware Transoceanic
Wed 06:02:00 PM 8.7056 -170.8400 224° Southwest 476 548 32,000  Level FlightAware Transoceanic
Wed 06:03:00 PM 8.6084 -170.9348 224° Southwest 476 548 32,000  Level FlightAware Transoceanic
Wed 06:04:00 PM 8.5111 -171.0297 224° Southwest 476 548 32,000  Level FlightAware Transoceanic
Wed 06:05:00 PM 8.4138 -171.1245 224° Southwest 476 548 32,000  Level FlightAware Transoceanic
Wed 06:06:00 PM 8.3165 -171.2193 224° Southwest 481 554 32,000  Level FlightAware Transoceanic
Wed 06:07:00 PM 8.2192 -171.3140 224° Southwest 481 554 32,000  Level FlightAware Transoceanic
Wed 06:08:00 PM 8.1218 -171.4086 224° Southwest 481 554 32,000  Level FlightAware Transoceanic
Wed 06:09:00 PM 8.0245 -171.5033 224° Southwest 481 554 32,000  Level FlightAware Transoceanic
Wed 06:10:00 PM 7.9271 -171.5978 224° Southwest 481 554 32,000  Level FlightAware Transoceanic
Wed 06:10:22 PM 7.9167 -171.6000 224° Southwest 482 555 32,000  Level Oakland Oceanic (ODAPS)
Wed 06:11:00 PM 7.8296 -171.6924 224° Southwest 481 554 32,000  Level FlightAware Transoceanic
Wed 06:12:00 PM 7.7322 -171.7868 224° Southwest 481 554 32,000  Level FlightAware Transoceanic
Wed 06:13:00 PM 7.6347 -171.8813 224° Southwest 481 554 32,000  Level FlightAware Transoceanic
Wed 06:14:00 PM 7.5373 -171.9757 224° Southwest 481 554 32,000  Level FlightAware Transoceanic
Wed 06:15:00 PM 7.4398 -172.0700 224° Southwest 481 554 32,000  Level FlightAware Transoceanic
Wed 06:16:00 PM 7.3334 -172.1662 224° Southwest 482 555 32,000  Level FlightAware Transoceanic
Wed 06:17:00 PM 7.2361 -172.2604 224° Southwest 482 555 32,000  Level FlightAware Transoceanic
Wed 06:18:00 PM 7.1388 -172.3546 224° Southwest 482 555 32,000  Level FlightAware Transoceanic
Wed 06:19:00 PM 7.0415 -172.4487 224° Southwest 482 555 32,000  Level FlightAware Transoceanic
Wed 06:20:00 PM 6.9442 -172.5428 224° Southwest 482 555 32,000  Level FlightAware Transoceanic
Wed 06:21:00 PM 6.8468 -172.6368 224° Southwest 482 555 32,000  Level FlightAware Transoceanic
Wed 06:22:00 PM 6.7495 -172.7309 224° Southwest 482 555 32,000  Level FlightAware Transoceanic
Wed 06:23:00 PM 6.6521 -172.8248 224° Southwest 482 555 32,000  Level FlightAware Transoceanic
Wed 06:24:00 PM 6.5546 -172.9188 224° Southwest 482 555 32,000  Level FlightAware Transoceanic
Wed 06:24:14 PM 6.5833 -172.9000 224° Southwest 485 558 32,000  Level Oakland Oceanic (ODAPS)
Wed 06:25:00 PM 6.4572 -173.0127 224° Southwest 482 555 32,000  Level FlightAware Transoceanic
Wed 06:26:00 PM 6.3598 -173.1066 224° Southwest 482 555 32,000  Level FlightAware Transoceanic
Wed 06:27:00 PM 6.2623 -173.2004 224° Southwest 482 555 32,000  Level FlightAware Transoceanic
Wed 06:28:00 PM 6.1648 -173.2942 224° Southwest 482 555 32,000  Level FlightAware Transoceanic
Wed 06:29:00 PM 6.0673 -173.3879 224° Southwest 482 555 32,000  Level FlightAware Transoceanic
Wed 06:30:00 PM 5.9919 -173.4673 224° Southwest 485 558 32,000  Level FlightAware Transoceanic
Wed 06:31:00 PM 5.8933 -173.5617 224° Southwest 485 558 32,000  Level FlightAware Transoceanic
Wed 06:32:00 PM 5.7947 -173.6561 224° Southwest 485 558 32,000  Level FlightAware Transoceanic
Wed 06:33:00 PM 5.6960 -173.7504 224° Southwest 485 558 32,000  Level FlightAware Transoceanic
Wed 06:34:00 PM 5.5973 -173.8448 224° Southwest 485 558 32,000  Level FlightAware Transoceanic
Wed 06:35:00 PM 5.4986 -173.9391 224° Southwest 485 558 32,000  Level FlightAware Transoceanic
Wed 06:36:00 PM 5.3999 -174.0333 224° Southwest 485 558 32,000  Level FlightAware Transoceanic
Wed 06:37:00 PM 5.3012 -174.1275 224° Southwest 485 558 32,000  Level FlightAware Transoceanic
Wed 06:38:00 PM 5.2025 -174.2218 224° Southwest 485 558 32,000  Level FlightAware Transoceanic
Wed 06:38:06 PM 5.2167 -174.2167 223° Southwest 483 556 32,000  Level Oakland Oceanic (ODAPS)
Wed 06:39:00 PM 5.1037 -174.3159 224° Southwest 485 558 32,000  Level FlightAware Transoceanic
Wed 06:40:00 PM 5.0050 -174.4101 224° Southwest 485 558 32,000  Level FlightAware Transoceanic
Wed 06:40:44 PM 4.9667 -174.4500 223° Southwest 485 558 32,000  Level Oakland Oceanic (ODAPS)
Wed 06:41:00 PM 4.9062 -174.5042 224° Southwest 485 558 32,000  Level FlightAware Transoceanic
Wed 06:42:00 PM 4.8074 -174.5983 223° Southwest 485 558 32,000  Level FlightAware Transoceanic
Wed 06:43:00 PM 4.7086 -174.6923 223° Southwest 485 558 32,000  Level FlightAware Transoceanic
Wed 06:44:00 PM 4.6169 -174.7838 223° Southwest 483 556 32,000  Level FlightAware Transoceanic
Wed 06:44:30 PM 4.6000 -174.8000 223° Southwest 491 565 32,000  Level Oakland Oceanic (ODAPS)
Wed 06:45:00 PM 4.5169 -174.8782 223° Southwest 483 556 32,000  Level FlightAware Transoceanic
Wed 06:46:00 PM 4.4169 -174.9726 223° Southwest 483 556 32,000  Level FlightAware Transoceanic
Wed 06:47:00 PM 4.3334 -175.0503 223° Southwest 485 558 32,000  Level FlightAware Transoceanic
Wed 06:48:00 PM 4.2279 -175.1502 223° Southwest 485 558 32,000  Level FlightAware Transoceanic
Wed 06:49:00 PM 4.1223 -175.2501 223° Southwest 485 558 32,000  Level FlightAware Transoceanic
Wed 06:50:00 PM 4.0167 -175.3500 224° Southwest 491 565 32,000  Level FlightAware Transoceanic
Wed 06:50:28 PM 4.0167 -175.3500 224° Southwest 491 565 32,000  Level Oakland Oceanic (ODAPS)
Wed 06:51:00 PM 3.9188 -175.4433 224° Southwest 491 565 32,000  Level FlightAware Transoceanic
Wed 06:51:58 PM 3.8833 -175.4833 224° Southwest 491 565 32,000  Level Oakland Oceanic (ODAPS)
Wed 06:52:00 PM 3.8210 -175.5366 224° Southwest 491 565 32,000  Level FlightAware Transoceanic
Wed 06:52:26 PM 3.8333 -175.5333 224° Southwest 491 565 32,000  Level Oakland Oceanic (ODAPS)
Wed 06:53:00 PM 3.7231 -175.6299 224° Southwest 491 565 32,000  Level FlightAware Transoceanic
Wed 06:54:00 PM 3.6252 -175.7231 224° Southwest 491 565 32,000  Level FlightAware Transoceanic
Wed 06:55:00 PM 3.5273 -175.8164 224° Southwest 491 565 32,000  Level FlightAware Transoceanic
Wed 06:56:00 PM 3.4294 -175.9096 224° Southwest 491 565 32,000  Level FlightAware Transoceanic
Wed 06:57:00 PM 3.3315 -176.0028 224° Southwest 491 565 32,000  Level FlightAware Transoceanic
Wed 06:58:00 PM 3.2444 -176.0931 223° Southwest 491 565 32,000  Level FlightAware Transoceanic
Wed 06:59:00 PM 3.1463 -176.1864 223° Southwest 491 565 32,000  Level FlightAware Transoceanic
Wed 07:00:00 PM 3.0481 -176.2796 223° Southwest 491 565 32,000  Level FlightAware Transoceanic
Wed 07:01:00 PM 2.9499 -176.3728 223° Southwest 491 565 32,000  Level FlightAware Transoceanic
Wed 07:02:00 PM 2.8517 -176.4659 223° Southwest 491 565 32,000  Level FlightAware Transoceanic
Wed 07:03:00 PM 2.7534 -176.5591 223° Southwest 491 565 32,000  Level FlightAware Transoceanic
Wed 07:04:00 PM 2.6552 -176.6523 223° Southwest 491 565 32,000  Level FlightAware Transoceanic
Wed 07:05:00 PM 2.5570 -176.7454 223° Southwest 491 565 32,000  Level FlightAware Transoceanic
Wed 07:06:00 PM 2.4588 -176.8385 223° Southwest 491 565 32,000  Level FlightAware Transoceanic
Wed 07:07:00 PM 2.3605 -176.9316 223° Southwest 491 565 32,000  Level FlightAware Transoceanic
Wed 07:08:00 PM 2.2623 -177.0247 223° Southwest 491 565 32,000  Level FlightAware Transoceanic
Wed 07:09:00 PM 2.1640 -177.1178 223° Southwest 491 565 32,000  Level FlightAware Transoceanic
Wed 07:10:00 PM 2.0658 -177.2108 223° Southwest 491 565 32,000  Level FlightAware Transoceanic
Wed 07:11:00 PM 1.9675 -177.3039 223° Southwest 491 565 32,000  Level FlightAware Transoceanic
Wed 07:12:00 PM 1.8692 -177.3970 223° Southwest 491 565 32,000  Level FlightAware Transoceanic
Wed 07:13:00 PM 1.7710 -177.4900 223° Southwest 491 565 32,000  Level FlightAware Transoceanic
Wed 07:14:00 PM 1.6727 -177.5830 223° Southwest 491 565 32,000  Level FlightAware Transoceanic
Wed 07:15:00 PM 1.5744 -177.6760 223° Southwest 491 565 32,000  Level FlightAware Transoceanic
Wed 07:16:00 PM 1.4761 -177.7690 223° Southwest 491 565 32,000  Level FlightAware Transoceanic
Wed 07:17:00 PM 1.3778 -177.8620 223° Southwest 491 565 32,000  Level FlightAware Transoceanic
Wed 07:18:00 PM 1.2795 -177.9550 223° Southwest 491 565 32,000  Level FlightAware Transoceanic
Wed 07:19:00 PM 1.1812 -178.0480 223° Southwest 491 565 32,000  Level FlightAware Transoceanic
Wed 07:19:42 PM 1.1500 -178.0833 223° Southwest 485 558 32,000  Level Oakland Oceanic (ODAPS)
Wed 07:20:00 PM 1.0829 -178.1410 223° Southwest 491 565 32,000  Level FlightAware Transoceanic
Wed 07:21:00 PM 0.9846 -178.2340 223° Southwest 491 565 32,000  Level FlightAware Transoceanic
Wed 07:22:00 PM 0.8863 -178.3269 223° Southwest 491 565 32,000  Level FlightAware Transoceanic
Wed 07:23:00 PM 0.7880 -178.4199 223° Southwest 491 565 32,000  Level FlightAware Transoceanic
Wed 07:24:00 PM 0.6897 -178.5128 223° Southwest 491 565 32,000  Level FlightAware Transoceanic
Wed 07:25:00 PM 0.6417 -178.5626 223° Southwest 485 558 32,000  Level FlightAware Transoceanic
Wed 07:26:00 PM 0.5400 -178.6584 223° Southwest 485 558 32,000  Level FlightAware Transoceanic
Wed 07:27:00 PM 0.4384 -178.7542 223° Southwest 485 558 32,000  Level FlightAware Transoceanic
Wed 07:28:00 PM 0.3367 -178.8501 223° Southwest 485 558 32,000  Level FlightAware Transoceanic
Wed 07:29:00 PM 0.2350 -178.9459 223° Southwest 485 558 32,000  Level FlightAware Transoceanic
Wed 07:30:00 PM 0.1333 -179.0417 223° Southwest 485 558 32,000  Level FlightAware Transoceanic
Wed 07:31:00 PM 0.0317 -179.1375 223° Southwest 485 558 32,000  Level FlightAware Transoceanic
Wed 07:32:00 PM -0.0700 -179.2334 223° Southwest 485 558 32,000  Level FlightAware Transoceanic
Wed 07:33:00 PM -0.1717 -179.3292 223° Southwest 485 558 32,000  Level FlightAware Transoceanic
Wed 07:33:34 PM -0.2000 -179.3667 223° Southwest 483 556 32,000  Level Oakland Oceanic (ODAPS)
Wed 07:34:00 PM -0.2733 -179.4250 223° Southwest 485 558 32,000  Level FlightAware Transoceanic
Wed 07:35:00 PM -0.3750 -179.5208 223° Southwest 485 558 32,000  Level FlightAware Transoceanic
Wed 07:36:00 PM -0.4767 -179.6167 223° Southwest 485 558 32,000  Level FlightAware Transoceanic
Wed 07:37:00 PM -0.5783 -179.7125 223° Southwest 485 558 32,000  Level FlightAware Transoceanic
Wed 07:38:00 PM -0.6800 -179.8083 223° Southwest 485 558 32,000  Level FlightAware Transoceanic
Wed 07:39:00 PM -0.7857 -179.9095 223° Southwest 483 556 32,000  Level FlightAware Transoceanic
Wed 07:40:00 PM -0.8833 -180.0000 219° Southwest 483 556 32,000  Level FlightAware Transoceanic
Wed 07:41:00 PM -0.9887 179.9141 219° Southwest 483 556 32,000  Level FlightAware Transoceanic
Wed 07:42:00 PM -1.0941 179.8282 219° Southwest 483 556 32,000  Level FlightAware Transoceanic
Wed 07:43:00 PM -1.1995 179.7423 219° Southwest 483 556 32,000  Level FlightAware Transoceanic
Wed 07:44:00 PM -1.3048 179.6564 219° Southwest 483 556 32,000  Level FlightAware Transoceanic
Wed 07:45:00 PM -1.4102 179.5704 219° Southwest 483 556 32,000  Level FlightAware Transoceanic
Wed 07:46:00 PM -1.5156 179.4845 219° Southwest 483 556 32,000  Level FlightAware Transoceanic
Wed 07:47:00 PM -1.6209 179.3986 219° Southwest 483 556 32,000  Level FlightAware Transoceanic
Wed 07:48:00 PM -1.7263 179.3126 219° Southwest 483 556 32,000  Level FlightAware Transoceanic
Wed 07:49:00 PM -1.8317 179.2267 219° Southwest 483 556 32,000  Level FlightAware Transoceanic
Wed 07:50:00 PM -1.9370 179.1407 219° Southwest 483 556 32,000  Level FlightAware Transoceanic
Wed 07:51:00 PM -2.0424 179.0547 219° Southwest 483 556 32,000  Level FlightAware Transoceanic
Wed 07:52:00 PM -2.1477 178.9687 219° Southwest 483 556 32,000  Level FlightAware Transoceanic
Wed 07:53:00 PM -2.2531 178.8827 219° Southwest 483 556 32,000  Level FlightAware Transoceanic
Wed 07:54:00 PM -2.3584 178.7967 219° Southwest 483 556 32,000  Level FlightAware Transoceanic
Wed 07:55:00 PM -2.4637 178.7107 219° Southwest 483 556 32,000  Level FlightAware Transoceanic
Wed 07:56:00 PM -2.5690 178.6246 219° Southwest 483 556 32,000  Level FlightAware Transoceanic
Wed 07:57:00 PM -2.6744 178.5386 219° Southwest 483 556 32,000  Level FlightAware Transoceanic
Wed 07:58:00 PM -2.7797 178.4525 219° Southwest 483 556 32,000  Level FlightAware Transoceanic
Wed 07:59:00 PM -2.8850 178.3664 219° Southwest 483 556 32,000  Level FlightAware Transoceanic
Wed 08:00:00 PM -2.9903 178.2803 219° Southwest 483 556 32,000  Level FlightAware Transoceanic
Wed 08:01:00 PM -3.0956 178.1942 219° Southwest 483 556 32,000  Level FlightAware Transoceanic
Wed 08:02:00 PM -3.2009 178.1080 219° Southwest 483 556 32,000  Level FlightAware Transoceanic
Wed 08:03:00 PM -3.3061 178.0219 219° Southwest 483 556 32,000  Level FlightAware Transoceanic
Wed 08:04:00 PM -3.4114 177.9357 219° Southwest 483 556 32,000  Level FlightAware Transoceanic
Wed 08:05:00 PM -3.5167 177.8495 219° Southwest 483 556 32,000  Level FlightAware Transoceanic
Wed 08:06:00 PM -3.6219 177.7633 219° Southwest 483 556 32,000  Level FlightAware Transoceanic
Wed 08:07:00 PM -3.7272 177.6771 219° Southwest 483 556 32,000  Level FlightAware Transoceanic
Wed 08:08:00 PM -3.8324 177.5908 219° Southwest 483 556 32,000  Level FlightAware Transoceanic
Wed 08:09:00 PM -3.9376 177.5046 219° Southwest 483 556 32,000  Level FlightAware Transoceanic
Wed 08:10:00 PM -4.0429 177.4183 219° Southwest 483 556 32,000  Level FlightAware Transoceanic
Wed 08:11:00 PM -4.1481 177.3320 219° Southwest 483 556 32,000  Level FlightAware Transoceanic
Wed 08:12:00 PM -4.2533 177.2456 219° Southwest 483 556 32,000  Level FlightAware Transoceanic
Wed 08:13:00 PM -4.3585 177.1593 219° Southwest 483 556 32,000  Level FlightAware Transoceanic
Wed 08:14:00 PM -4.4636 177.0729 219° Southwest 483 556 32,000  Level FlightAware Transoceanic
Wed 08:15:00 PM -4.5688 176.9865 219° Southwest 483 556 32,000  Level FlightAware Transoceanic
Wed 08:16:00 PM -4.6740 176.9000 219° Southwest 483 556 32,000  Level FlightAware Transoceanic
Wed 08:17:00 PM -4.7791 176.8136 219° Southwest 483 556 32,000  Level FlightAware Transoceanic
Wed 08:18:00 PM -4.8843 176.7271 219° Southwest 483 556 32,000  Level FlightAware Transoceanic
Wed 08:19:00 PM -4.9894 176.6405 219° Southwest 483 556 32,000  Level FlightAware Transoceanic
Wed 08:20:00 PM -5.0945 176.5540 219° Southwest 483 556 32,000  Level FlightAware Transoceanic
Wed 08:21:00 PM -5.1996 176.4674 219° Southwest 483 556 32,000  Level FlightAware Transoceanic
Wed 08:22:00 PM -5.3047 176.3808 219° Southwest 483 556 32,000  Level FlightAware Transoceanic
Wed 08:23:00 PM -5.4098 176.2942 219° Southwest 483 556 32,000  Level FlightAware Transoceanic
Wed 08:24:00 PM -5.5149 176.2075 219° Southwest 483 556 32,000  Level FlightAware Transoceanic
Wed 08:25:00 PM -5.6199 176.1208 219° Southwest 483 556 32,000  Level FlightAware Transoceanic
Wed 08:26:00 PM -5.7250 176.0341 219° Southwest 483 556 32,000  Level FlightAware Transoceanic
Wed 08:27:00 PM -5.8300 175.9474 219° Southwest 483 556 32,000  Level FlightAware Transoceanic
Wed 08:28:00 PM -5.9350 175.8606 219° Southwest 483 556 32,000  Level FlightAware Transoceanic
Wed 08:29:00 PM -6.0400 175.7737 219° Southwest 483 556 32,000  Level FlightAware Transoceanic
Wed 08:30:00 PM -6.1450 175.6869 219° Southwest 483 556 32,000 18 Level FlightAware Transoceanic
Wed 08:31:00 PM -6.2318 175.5851 229° Southwest  Level FlightAware Approximate
Wed 08:32:00 PM -6.3185 175.4832 229° Southwest  Level FlightAware Approximate
Wed 08:33:00 PM -6.3320 175.4976 221° Southwest  Level FlightAware Approximate
Wed 08:34:00 PM -6.4329 175.4099 221° Southwest  Level FlightAware Approximate
Wed 08:35:00 PM -6.5338 175.3221 221° Southwest  Level FlightAware Approximate
Wed 08:36:00 PM -6.6346 175.2343 221° Southwest  Level FlightAware Approximate
Wed 08:37:00 PM -6.7355 175.1465 221° Southwest  Level FlightAware Approximate
Wed 08:38:00 PM -6.8363 175.0587 221° Southwest  Level FlightAware Approximate
Wed 08:39:00 PM -6.9371 174.9708 221° Southwest  Level FlightAware Approximate
Wed 08:40:00 PM -7.0379 174.8828 221° Southwest  Level FlightAware Approximate
Wed 08:41:00 PM -7.1387 174.7949 221° Southwest  Level FlightAware Approximate
Wed 08:42:00 PM -7.2394 174.7069 221° Southwest  Level FlightAware Approximate
Wed 08:43:00 PM -7.3402 174.6188 221° Southwest  Level FlightAware Approximate
Wed 08:44:00 PM -7.4409 174.5307 221° Southwest  Level FlightAware Approximate
Wed 08:45:00 PM -7.5416 174.4426 221° Southwest  Level FlightAware Approximate
Wed 08:46:00 PM -7.6423 174.3544 221° Southwest  Level FlightAware Approximate
Wed 08:47:00 PM -7.7430 174.2662 221° Southwest  Level FlightAware Approximate
Wed 08:48:00 PM -7.8436 174.1780 221° Southwest  Level FlightAware Approximate
Wed 08:49:00 PM -7.9443 174.0897 221° Southwest  Level FlightAware Approximate
Wed 08:50:00 PM -8.0449 174.0013 221° Southwest  Level FlightAware Approximate
Wed 08:51:00 PM -8.1455 173.9130 221° Southwest  Level FlightAware Approximate
Wed 08:52:00 PM -8.2461 173.8246 221° Southwest  Level FlightAware Approximate
Wed 08:53:00 PM -8.3466 173.7361 221° Southwest  Level FlightAware Approximate
Wed 08:54:00 PM -8.4472 173.6476 221° Southwest  Level FlightAware Approximate
Wed 08:55:00 PM -8.5477 173.5590 221° Southwest  Level FlightAware Approximate
Wed 08:56:00 PM -8.6482 173.4704 221° Southwest  Level FlightAware Approximate
Wed 08:57:00 PM -8.7487 173.3817 221° Southwest  Level FlightAware Approximate
Wed 08:58:00 PM -8.8491 173.2930 221° Southwest  Level FlightAware Approximate
Wed 08:59:00 PM -8.9496 173.2043 221° Southwest  Level FlightAware Approximate
Wed 09:00:00 PM -9.0500 173.1155 221° Southwest  Level FlightAware Approximate
Wed 09:01:00 PM -9.1504 173.0267 221° Southwest  Level FlightAware Approximate
Wed 09:02:00 PM -9.2507 172.9377 221° Southwest  Level FlightAware Approximate
Wed 09:03:00 PM -9.3511 172.8488 221° Southwest  Level FlightAware Approximate
Wed 09:04:00 PM -9.4514 172.7598 221° Southwest  Level FlightAware Approximate
Wed 09:05:00 PM -9.5517 172.6707 221° Southwest  Level FlightAware Approximate
Wed 09:06:00 PM -9.6520 172.5816 221° Southwest  Level FlightAware Approximate
Wed 09:07:00 PM -9.7523 172.4925 221° Southwest  Level FlightAware Approximate
Wed 09:08:00 PM -9.8525 172.4032 221° Southwest  Level FlightAware Approximate
Wed 09:09:00 PM -9.9526 172.3138 221° Southwest  Level FlightAware Approximate
Wed 09:10:00 PM -10.0527 172.2244 221° Southwest  Level FlightAware Approximate
Wed 09:11:00 PM -10.1528 172.1349 221° Southwest  Level FlightAware Approximate
Wed 09:12:00 PM -10.2528 172.0454 221° Southwest  Level FlightAware Approximate
Wed 09:13:00 PM -10.3528 171.9558 221° Southwest  Level FlightAware Approximate
Wed 09:14:00 PM -10.4528 171.8661 221° Southwest  Level FlightAware Approximate
Wed 09:15:00 PM -10.5528 171.7764 221° Southwest  Level FlightAware Approximate
Wed 09:16:00 PM -10.6527 171.6866 221° Southwest  Level FlightAware Approximate
Wed 09:17:00 PM -10.7527 171.5968 221° Southwest  Level FlightAware Approximate
Wed 09:18:00 PM -10.8526 171.5069 221° Southwest  Level FlightAware Approximate
Wed 09:19:00 PM -10.9524 171.4169 221° Southwest  Level FlightAware Approximate
Wed 09:20:00 PM -11.0523 171.3269 221° Southwest  Level FlightAware Approximate
Wed 09:21:00 PM -11.1521 171.2369 222° Southwest  Level FlightAware Approximate
Wed 09:22:00 PM -11.2519 171.1467 222° Southwest  Level FlightAware Approximate
Wed 09:23:00 PM -11.3516 171.0565 222° Southwest  Level FlightAware Approximate
Wed 09:24:00 PM -11.4514 170.9663 222° Southwest  Level FlightAware Approximate
Wed 09:25:00 PM -11.5511 170.8759 222° Southwest  Level FlightAware Approximate
Wed 09:26:00 PM -11.6508 170.7856 222° Southwest  Level FlightAware Approximate
Wed 09:27:00 PM -11.7504 170.6951 222° Southwest  Level FlightAware Approximate
Wed 09:28:00 PM -11.8500 170.6046 222° Southwest  Level FlightAware Approximate
Wed 09:29:00 PM -11.9496 170.5140 222° Southwest  Level FlightAware Approximate
Wed 09:30:00 PM -12.0492 170.4234 222° Southwest  Level FlightAware Approximate
Wed 09:31:00 PM -12.1487 170.3326 222° Southwest  Level FlightAware Approximate
Wed 09:32:00 PM -12.2483 170.2418 222° Southwest  Level FlightAware Approximate
Wed 09:33:00 PM -12.3477 170.1510 222° Southwest  Level FlightAware Approximate
Wed 09:34:00 PM -12.4472 170.0601 222° Southwest  Level FlightAware Approximate
Wed 09:35:00 PM -12.5466 169.9691 222° Southwest  Level FlightAware Approximate
Wed 09:36:00 PM -12.6460 169.8780 222° Southwest  Level FlightAware Approximate
Wed 09:37:00 PM -12.7453 169.7869 222° Southwest  Level FlightAware Approximate
Wed 09:38:00 PM -12.8447 169.6956 222° Southwest  Level FlightAware Approximate
Wed 09:39:00 PM -12.9439 169.6044 222° Southwest  Level FlightAware Approximate
Wed 09:40:00 PM -13.0432 169.5130 222° Southwest  Level FlightAware Approximate
Wed 09:41:00 PM -13.1424 169.4216 222° Southwest  Level FlightAware Approximate
Wed 09:42:00 PM -13.2416 169.3301 222° Southwest  Level FlightAware Approximate
Wed 09:43:00 PM -13.3408 169.2385 222° Southwest  Level FlightAware Approximate
Wed 09:44:00 PM -13.4399 169.1469 222° Southwest  Level FlightAware Approximate
Wed 09:45:00 PM -13.5390 169.0551 222° Southwest  Level FlightAware Approximate
Wed 09:46:00 PM -13.6381 168.9633 222° Southwest  Level FlightAware Approximate
Wed 09:47:00 PM -13.7371 168.8715 222° Southwest  Level FlightAware Approximate
Wed 09:48:00 PM -13.8361 168.7795 222° Southwest  Level FlightAware Approximate
Wed 09:49:00 PM -13.9351 168.6875 222° Southwest  Level FlightAware Approximate
Wed 09:50:00 PM -14.0340 168.5954 222° Southwest  Level FlightAware Approximate
Wed 09:51:00 PM -14.1329 168.5032 222° Southwest  Level FlightAware Approximate
Wed 09:52:00 PM -14.2318 168.4109 222° Southwest  Level FlightAware Approximate
Wed 09:53:00 PM -14.3306 168.3186 222° Southwest  Level FlightAware Approximate
Wed 09:54:00 PM -14.4294 168.2261 222° Southwest  Level FlightAware Approximate
Wed 09:55:00 PM -14.5281 168.1336 222° Southwest  Level FlightAware Approximate
Wed 09:56:00 PM -14.6268 168.0410 222° Southwest  Level FlightAware Approximate
Wed 09:57:00 PM -14.7255 167.9483 222° Southwest  Level FlightAware Approximate
Wed 09:58:00 PM -14.8242 167.8555 222° Southwest  Level FlightAware Approximate
Wed 09:59:00 PM -14.9228 167.7627 222° Southwest  Level FlightAware Approximate
Wed 10:00:00 PM -15.0213 167.6698 222° Southwest  Level FlightAware Approximate
Wed 10:01:00 PM -15.1199 167.5767 222° Southwest  Level FlightAware Approximate
Wed 10:02:00 PM -15.2183 167.4836 222° Southwest  Level FlightAware Approximate
Wed 10:03:00 PM -15.3168 167.3904 222° Southwest  Level FlightAware Approximate
Wed 10:04:00 PM -15.4152 167.2971 222° Southwest  Level FlightAware Approximate
Wed 10:05:00 PM -15.5153 167.2061 214° Southwest  Level FlightAware Approximate
Wed 10:06:00 PM -15.6263 167.1294 214° Southwest  Level FlightAware Approximate
Wed 10:07:00 PM -15.7373 167.0526 214° Southwest  Level FlightAware Approximate
Wed 10:08:00 PM -15.8482 166.9757 214° Southwest  Level FlightAware Approximate
Wed 10:09:00 PM -15.9591 166.8987 214° Southwest  Level FlightAware Approximate
Wed 10:10:00 PM -16.0699 166.8217 214° Southwest  Level FlightAware Approximate
Wed 10:11:00 PM -16.1808 166.7446 214° Southwest  Level FlightAware Approximate
Wed 10:12:00 PM -16.2916 166.6673 214° Southwest  Level FlightAware Approximate
Wed 10:13:00 PM -16.4024 166.5900 214° Southwest  Level FlightAware Approximate
Wed 10:14:00 PM -16.5131 166.5126 214° Southwest  Level FlightAware Approximate
Wed 10:15:00 PM -16.6239 166.4352 214° Southwest  Level FlightAware Approximate
Wed 10:16:00 PM -16.7346 166.3576 214° Southwest  Level FlightAware Approximate
Wed 10:17:00 PM -16.8452 166.2799 214° Southwest  Level FlightAware Approximate
Wed 10:18:00 PM -16.9559 166.2022 214° Southwest  Level FlightAware Approximate
Wed 10:19:00 PM -17.0665 166.1243 214° Southwest  Level FlightAware Approximate
Wed 10:20:00 PM -17.1771 166.0464 214° Southwest  Level FlightAware Approximate
Wed 10:21:00 PM -17.2876 165.9684 214° Southwest  Level FlightAware Approximate
Wed 10:22:00 PM -17.3981 165.8902 214° Southwest  Level FlightAware Approximate
Wed 10:23:00 PM -17.5086 165.8120 214° Southwest  Level FlightAware Approximate
Wed 10:24:00 PM -17.6191 165.7337 214° Southwest  Level FlightAware Approximate
Wed 10:25:00 PM -17.7295 165.6553 214° Southwest  Level FlightAware Approximate
Wed 10:26:00 PM -17.8399 165.5768 214° Southwest  Level FlightAware Approximate
Wed 10:27:00 PM -17.9503 165.4982 214° Southwest  Level FlightAware Approximate
Wed 10:28:00 PM -18.0606 165.4195 214° Southwest  Level FlightAware Approximate
Wed 10:29:00 PM -18.1709 165.3407 214° Southwest  Level FlightAware Approximate
Wed 10:30:00 PM -18.2812 165.2618 214° Southwest  Level FlightAware Approximate
Wed 10:31:00 PM -18.3914 165.1828 214° Southwest  Level FlightAware Approximate
Wed 10:32:00 PM -18.5016 165.1037 214° Southwest  Level FlightAware Approximate
Wed 10:33:00 PM -18.6118 165.0245 214° Southwest  Level FlightAware Approximate
Wed 10:34:00 PM -18.7219 164.9452 214° Southwest  Level FlightAware Approximate
Wed 10:35:00 PM -18.8321 164.8658 214° Southwest  Level FlightAware Approximate
Wed 10:36:00 PM -18.9421 164.7863 214° Southwest  Level FlightAware Approximate
Wed 10:37:00 PM -19.0522 164.7066 214° Southwest  Level FlightAware Approximate
Wed 10:38:00 PM -19.1622 164.6269 214° Southwest  Level FlightAware Approximate
Wed 10:39:00 PM -19.2721 164.5471 214° Southwest  Level FlightAware Approximate
Wed 10:40:00 PM -19.3821 164.4671 214° Southwest  Level FlightAware Approximate
Wed 10:41:00 PM -19.4920 164.3871 214° Southwest  Level FlightAware Approximate
Wed 10:42:00 PM -19.6018 164.3069 214° Southwest  Level FlightAware Approximate
Wed 10:43:00 PM -19.7117 164.2267 215° Southwest  Level FlightAware Approximate
Wed 10:44:00 PM -19.8214 164.1463 215° Southwest  Level FlightAware Approximate
Wed 10:45:00 PM -19.9312 164.0658 215° Southwest  Level FlightAware Approximate
Wed 10:46:00 PM -20.0409 163.9852 215° Southwest  Level FlightAware Approximate
Wed 10:47:00 PM -20.1506 163.9045 215° Southwest  Level FlightAware Approximate
Wed 10:48:00 PM -20.2603 163.8237 215° Southwest  Level FlightAware Approximate
Wed 10:49:00 PM -20.3699 163.7427 215° Southwest  Level FlightAware Approximate
Wed 10:50:00 PM -20.4794 163.6617 215° Southwest  Level FlightAware Approximate
Wed 10:51:00 PM -20.5890 163.5805 215° Southwest  Level FlightAware Approximate
Wed 10:52:00 PM -20.6985 163.4992 215° Southwest  Level FlightAware Approximate
Wed 10:53:00 PM -20.8079 163.4178 215° Southwest  Level FlightAware Approximate
Wed 10:54:00 PM -20.9174 163.3363 215° Southwest  Level FlightAware Approximate
Wed 10:55:00 PM -21.0267 163.2547 215° Southwest  Level FlightAware Approximate
Wed 10:56:00 PM -21.1361 163.1729 215° Southwest  Level FlightAware Approximate
Wed 10:57:00 PM -21.2454 163.0910 215° Southwest  Level FlightAware Approximate
Wed 10:58:00 PM -21.3547 163.0090 215° Southwest  Level FlightAware Approximate
Wed 10:59:00 PM -21.4623 162.9245 216° Southwest  Level FlightAware Approximate
Wed 11:00:00 PM -21.5696 162.8395 216° Southwest  Level FlightAware Approximate
Wed 11:01:00 PM -21.6769 162.7544 216° Southwest  Level FlightAware Approximate
Wed 11:02:00 PM -21.7842 162.6691 216° Southwest  Level FlightAware Approximate
Wed 11:03:00 PM -21.8914 162.5838 216° Southwest  Level FlightAware Approximate
Wed 11:04:00 PM -21.9986 162.4982 216° Southwest  Level FlightAware Approximate
Wed 11:05:00 PM -22.1057 162.4126 217° Southwest  Level FlightAware Approximate
Wed 11:06:00 PM -22.2128 162.3269 217° Southwest  Level FlightAware Approximate
Wed 11:07:00 PM -22.3199 162.2410 217° Southwest  Level FlightAware Approximate
Wed 11:08:00 PM -22.4268 162.1550 217° Southwest  Level FlightAware Approximate
Wed 11:09:00 PM -22.5338 162.0688 217° Southwest  Level FlightAware Approximate
Wed 11:10:00 PM -22.6407 161.9825 217° Southwest  Level FlightAware Approximate
Wed 11:11:00 PM -22.7476 161.8961 217° Southwest  Level FlightAware Approximate
Wed 11:12:00 PM -22.8544 161.8096 217° Southwest  Level FlightAware Approximate
Wed 11:13:00 PM -22.9611 161.7229 217° Southwest  Level FlightAware Approximate
Wed 11:14:00 PM -23.0679 161.6360 217° Southwest  Level FlightAware Approximate
Wed 11:15:00 PM -23.1745 161.5491 217° Southwest  Level FlightAware Approximate
Wed 11:16:00 PM -23.2812 161.4620 217° Southwest  Level FlightAware Approximate
Wed 11:17:00 PM -23.3878 161.3747 217° Southwest  Level FlightAware Approximate
Wed 11:18:00 PM -23.4943 161.2873 217° Southwest  Level FlightAware Approximate
Wed 11:19:00 PM -23.6008 161.1998 217° Southwest  Level FlightAware Approximate
Wed 11:20:00 PM -23.7072 161.1121 217° Southwest  Level FlightAware Approximate
Wed 11:21:00 PM -23.8136 161.0243 217° Southwest  Level FlightAware Approximate
Wed 11:22:00 PM -23.9199 160.9364 217° Southwest  Level FlightAware Approximate
Wed 11:23:00 PM -24.0262 160.8483 217° Southwest  Level FlightAware Approximate
Wed 11:24:00 PM -24.1324 160.7600 217° Southwest  Level FlightAware Approximate
Wed 11:25:00 PM -24.2386 160.6716 217° Southwest  Level FlightAware Approximate
Wed 11:26:00 PM -24.3447 160.5831 217° Southwest  Level FlightAware Approximate
Wed 11:27:00 PM -24.4508 160.4944 217° Southwest  Level FlightAware Approximate
Wed 11:28:00 PM -24.5568 160.4056 217° Southwest  Level FlightAware Approximate
Wed 11:29:00 PM -24.6685 160.3257 212° Southwest  Level FlightAware Approximate
Wed 11:30:00 PM -24.7821 160.2488 212° Southwest  Level FlightAware Approximate
Wed 11:31:00 PM -24.8956 160.1718 212° Southwest  Level FlightAware Approximate
Wed 11:32:00 PM -25.0091 160.0945 212° Southwest  Level FlightAware Approximate
Wed 11:33:00 PM -25.1225 160.0172 212° Southwest  Level FlightAware Approximate
Wed 11:34:00 PM -25.2359 159.9397 212° Southwest  Level FlightAware Approximate
Wed 11:35:00 PM -25.3492 159.8621 212° Southwest  Level FlightAware Approximate
Wed 11:36:00 PM -25.4625 159.7843 212° Southwest  Level FlightAware Approximate
Wed 11:37:00 PM -25.5758 159.7064 212° Southwest  Level FlightAware Approximate
Wed 11:38:00 PM -25.6890 159.6283 212° Southwest  Level FlightAware Approximate
Wed 11:39:00 PM -25.8022 159.5501 212° Southwest  Level FlightAware Approximate
Wed 11:40:00 PM -25.9154 159.4717 212° Southwest  Level FlightAware Approximate
Wed 11:41:00 PM -26.0285 159.3932 212° Southwest  Level FlightAware Approximate
Wed 11:42:00 PM -26.1415 159.3145 212° Southwest  Level FlightAware Approximate
Wed 11:43:00 PM -26.2546 159.2357 212° Southwest  Level FlightAware Approximate
Wed 11:44:00 PM -26.3675 159.1567 212° Southwest  Level FlightAware Approximate
Wed 11:45:00 PM -26.4805 159.0775 212° Southwest  Level FlightAware Approximate
Wed 11:46:00 PM -26.5933 158.9982 212° Southwest  Level FlightAware Approximate
Wed 11:47:00 PM -26.7062 158.9188 212° Southwest  Level FlightAware Approximate
Wed 11:48:00 PM -26.8190 158.8392 212° Southwest  Level FlightAware Approximate
Wed 11:49:00 PM -26.9317 158.7594 212° Southwest  Level FlightAware Approximate
Wed 11:50:00 PM -27.0445 158.6795 212° Southwest  Level FlightAware Approximate
Wed 11:51:00 PM -27.1571 158.5994 212° Southwest  Level FlightAware Approximate
Wed 11:52:00 PM -27.2697 158.5192 212° Southwest  Level FlightAware Approximate
Wed 11:53:00 PM -27.3823 158.4388 212° Southwest  Level FlightAware Approximate
Wed 11:54:00 PM -27.4948 158.3582 212° Southwest  Level FlightAware Approximate
Wed 11:55:00 PM -27.6073 158.2775 212° Southwest  Level FlightAware Approximate
Wed 11:56:00 PM -27.7197 158.1965 212° Southwest  Level FlightAware Approximate
Wed 11:57:00 PM -27.8321 158.1155 213° Southwest  Level FlightAware Approximate
Wed 11:58:00 PM -27.9445 158.0342 213° Southwest  Level FlightAware Approximate
Wed 11:59:00 PM -28.0568 157.9528 213° Southwest  Level FlightAware Approximate
Thu 12:00:00 AM -28.1690 157.8712 213° Southwest  Level FlightAware Approximate
Thu 12:01:00 AM -28.2812 157.7895 213° Southwest  Level FlightAware Approximate
Thu 12:02:00 AM -28.3934 157.7076 213° Southwest  Level FlightAware Approximate
Thu 12:03:00 AM -28.5055 157.6255 213° Southwest  Level FlightAware Approximate
Thu 12:04:00 AM -28.6175 157.5432 213° Southwest  Level FlightAware Approximate
Thu 12:05:00 AM -28.7295 157.4608 213° Southwest  Level FlightAware Approximate
Thu 12:05:38 AM -27.7810 158.1678 213° Southwest 585 673 36,000  Level Aus ATC (RADAR)
Thu 12:06:13 AM -27.8426 158.1239 212° Southwest 481 554 36,000  Level Aus ATC (RADAR)
Thu 12:07:13 AM -27.9413 158.0519 213° Southwest 433 498 36,000  Level Aus ATC (RADAR)
Thu 12:08:13 AM -28.0374 157.9802 213° Southwest 420 483 36,000  Level Aus ATC (RADAR)
Thu 12:08:48 AM -28.0954 157.9385 212° Southwest 422 486 36,000  Level Aus ATC (RADAR)
Thu 12:09:03 AM -28.1209 157.9201 212° Southwest 424 488 36,000 109 Level Aus ATC (RADAR)
Thu 12:09:43 AM -28.1872 157.8722 212° Southwest 424 488 36,100  Climbing Aus ATC (RADAR)
Thu 12:10:37 AM -28.2777 157.8054 213° Southwest 424 488 36,000 -67 Descending Aus ATC (RADAR)
Thu 12:11:12 AM -28.3363 157.7628 213° Southwest 426 490 36,000  Level Aus ATC (RADAR)
Thu 12:12:12 AM -28.4375 157.6889 213° Southwest 431 496 36,000 52 Level Aus ATC (RADAR)
Thu 12:13:07 AM -28.5309 157.6209 213° Southwest 434 499 36,100 67 Climbing Aus ATC (RADAR)
Thu 12:13:42 AM -28.5905 157.5773 213° Southwest 436 502 36,100  Level Aus ATC (RADAR)
Thu 12:13:57 AM -28.6161 157.5586 213° Southwest 436 502 36,100  Level Aus ATC (RADAR)
Thu 12:14:32 AM -28.6750 157.5156 213° Southwest 434 499 36,100 -67 Level Aus ATC (RADAR)
Thu 12:15:27 AM -28.7669 157.4478 213° Southwest 431 496 36,000 -67 Descending Aus ATC (RADAR)
Thu 12:16:02 AM -28.8244 157.4054 213° Southwest 426 490 36,000  Level Aus ATC (RADAR)
Thu 12:17:02 AM -28.9230 157.3330 213° Southwest 423 487 36,000  Level Aus ATC (RADAR)
Thu 12:17:42 AM -28.9879 157.2844 213° Southwest 421 484 36,000 45 Level Aus ATC (RADAR)
Thu 12:19:16 AM -29.1462 157.1677 213° Southwest 429 494 36,100 55 Climbing Aus ATC (RADAR)
Thu 12:19:31 AM -29.1716 157.1490 213° Southwest 430 495 36,100 -109 Level Aus ATC (RADAR)
Thu 12:20:11 AM -29.2370 157.1004 213° Southwest 426 490 36,000  Descending Aus ATC (RADAR)
Thu 12:21:11 AM -29.3357 157.0269 213° Southwest 424 488 36,100 62 Climbing Aus ATC (RADAR)
Thu 12:21:48 AM -29.3761 156.9967 213° Southwest 422 486 36,100  Level Aus ATC (RADAR)
Thu 12:25:36 AM -29.7750 156.6970 213° Southwest 438 504 36,100  Level Aus ATC (RADAR)
Thu 12:27:11 AM -29.9402 156.5790 212° Southwest 442 509 36,100  Level Aus ATC (RADAR)
Thu 12:29:05 AM -30.1506 156.4545 207° Southwest 445 512 36,100 29 Level Aus ATC (RADAR)
Thu 12:30:35 AM -30.3158 156.3556 207° Southwest 447 514 36,200 32 Climbing Aus ATC (RADAR)
Thu 12:32:10 AM -30.4892 156.2521 207° Southwest 445 512 36,200  Level Aus ATC (RADAR)
Thu 12:33:40 AM -30.6538 156.1540 207° Southwest 443 510 36,200 33 Level Aus ATC (RADAR)
Thu 12:35:10 AM -30.8211 156.0531 207° Southwest 450 518 36,300 57 Climbing Aus ATC (RADAR)
Thu 12:35:25 AM -30.8488 156.0363 207° Southwest 450 518 36,300 -34 Level Aus ATC (RADAR)
Thu 12:38:05 AM -31.1465 155.8550 208° Southwest 452 520 36,200 -25 Descending Aus ATC (RADAR)
Thu 12:39:24 AM -31.2927 155.7661 207° Southwest 447 514 36,200  Level Aus ATC (RADAR)
Thu 12:39:49 AM -31.3383 155.7382 208° Southwest 446 513 36,200  Level Aus ATC (RADAR)
Thu 12:41:24 AM -31.5114 155.6324 208° Southwest 445 512 36,200 21 Level Aus ATC (RADAR)
Thu 12:44:29 AM -31.7686 155.4734 208° Southwest 451 519 36,300 -49 Climbing Aus ATC (RADAR)
Thu 12:45:27 AM -31.9510 155.3610 208° Southwest 455 524 36,000 -129 Descending FlightAware ADS-B
Thu 12:46:02 AM -32.0140 155.3220 208° Southwest 454 522 36,100 71 Climbing FlightAware ADS-B
Thu 12:46:52 AM -32.0970 155.2710 207° Southwest 455 524 36,100  Level FlightAware ADS-B
Thu 12:47:32 AM -32.1790 155.2190 208° Southwest 448 516 36,100 91 Level FlightAware ADS-B
Thu 12:47:58 AM -32.2407 155.1805 208° Southwest 446 513 36,200 -133 Climbing Aus ATC (RADAR)
Thu 12:48:17 AM -32.2610 155.1680 208° Southwest 441 507 36,000 -222 Descending FlightAware ADS-B
Thu 12:48:52 AM -32.3200 155.1310 208° Southwest 436 502 36,000  Level FlightAware ADS-B
Thu 12:49:42 AM -32.4090 155.0750 208° Southwest 430 495 36,000  Level FlightAware ADS-B
Thu 12:50:22 AM -32.4900 155.0240 208° Southwest 425 489 36,000 182 Level FlightAware ADS-B
Thu 12:50:48 AM -32.5399 154.9918 208° Southwest 423 487 36,200  Climbing Aus ATC (RADAR)
Thu 12:51:07 AM -32.5590 154.9800 208° Southwest 424 488 36,000 -203 Descending FlightAware ADS-B
Thu 12:51:47 AM -32.6290 154.9360 208° Southwest 427 491 36,000 158 Level FlightAware ADS-B
Thu 12:52:23 AM -32.7057 154.8870 208° Southwest 429 494 36,200  Climbing Aus ATC (RADAR)
Thu 12:52:27 AM -32.7060 154.8870 208° Southwest 432 497 36,000 -136 Descending FlightAware ADS-B
Thu 12:53:07 AM -32.7740 154.8450 207° Southwest 434 499 36,100 80 Climbing FlightAware ADS-B
Thu 12:53:42 AM -32.8320 154.8080 208° Southwest 432 497 36,100 -71 Level FlightAware ADS-B
Thu 12:54:32 AM -32.9170 154.7540 208° Southwest 429 494 36,000 70 Descending FlightAware ADS-B
Thu 12:55:08 AM -32.9960 154.7029 208° Southwest 428 493 36,200  Climbing Aus ATC (RADAR)
Thu 12:55:27 AM -33.0090 154.6950 208° Southwest 428 493 36,000 -203 Descending FlightAware ADS-B
Thu 12:56:07 AM -33.0680 154.6580 208° Southwest 428 493 36,000 277 Level FlightAware ADS-B
Thu 12:56:32 AM -33.1212 154.5831 208° Southwest 415 478 36,300  Climbing Aus ATC (RADAR)
Thu 12:56:32 AM -33.1140 154.5930 208° Southwest 398 458 36,000  Descending FlightAware ADS-B
Thu 12:56:47 AM -33.1371 154.5568 208° Southwest 403 464 36,300  Climbing Aus ATC (RADAR)
Thu 12:57:22 AM -33.1690 154.5080 208° Southwest 399 459 36,000 -257 Descending FlightAware ADS-B
Thu 12:57:57 AM -33.2070 154.4500 232° Southwest 401 461 36,000  Level FlightAware ADS-B
Thu 12:58:42 AM -33.2620 154.3650 232° Southwest 407 468 36,000 67 Level FlightAware ADS-B
Thu 12:59:27 AM -33.3130 154.2840 233° Southwest 410 472 36,100 343 Climbing FlightAware ADS-B
Thu 12:59:52 AM -33.3484 154.2291 233° Southwest 411 473 36,400  Climbing Aus ATC (RADAR)
Thu 01:00:02 AM -33.3530 154.2220 233° Southwest 414 476 36,100 -300 Descending FlightAware ADS-B
Thu 01:00:52 AM -33.4110 154.1310 233° Southwest 416 479 36,100  Level FlightAware ADS-B
Thu 01:01:27 AM -33.4510 154.0710 233° Southwest 413 475 36,100 500 Level FlightAware ADS-B
Thu 01:01:28 AM -33.4361 154.0919 233° Southwest 418 481 36,400 -120 Climbing Aus ATC (RADAR)
Thu 01:02:17 AM -33.5090 153.9780 233° Southwest 409 471 36,000 -270 Descending FlightAware ADS-B
Thu 01:02:57 AM -33.5500 153.9150 232° Southwest 409 471 36,000  Level FlightAware ADS-B
Thu 01:03:32 AM -33.5940 153.8450 233° Southwest 411 473 36,000 340 Level FlightAware ADS-B
Thu 01:03:50 AM -33.5969 153.8390 233° Southwest 410 472 36,300  Climbing Aus ATC (RADAR)
Thu 01:04:17 AM -33.6490 153.7570 233° Southwest 415 478 36,000 -167 Descending FlightAware ADS-B
Thu 01:05:02 AM -33.7020 153.6740 232° Southwest 416 479 36,100 282 Climbing FlightAware ADS-B
Thu 01:05:42 AM -33.7544 153.5899 232° Southwest 406 467 36,400  Climbing Aus ATC (RADAR)
Thu 01:05:47 AM -33.7530 153.5930 232° Southwest 418 481 36,100 -533 Descending FlightAware ADS-B
Thu 01:06:27 AM -33.8000 153.5180 233° Southwest 420 483 36,000 -71 Descending FlightAware ADS-B
Thu 01:07:12 AM -33.8520 153.4340 233° Southwest 421 484 36,000  Level FlightAware ADS-B
Thu 01:07:42 AM -33.8890 153.3740 233° Southwest 421 484 36,000  Level FlightAware ADS-B
Thu 01:08:47 AM -33.9460 153.2390 243° Southwest 415 478 36,000  Level FlightAware ADS-B
Thu 01:09:32 AM -33.9560 153.1450 263° West 416 479 36,000 -71 Level FlightAware ADS-B
Thu 01:10:12 AM -33.9760 153.0480 256° West 417 480 35,900 -1,125 Descending FlightAware ADS-B
Thu 01:10:52 AM -33.9960 152.9570 255° West 416 479 34,500 -2,682 Descending FlightAware ADS-B
Thu 01:11:37 AM -34.0160 152.8670 255° West 437 503 32,100 -3,100 Descending FlightAware ADS-B
Thu 01:11:52 AM -34.0286 152.8111 255° West 430 495 31,400 -3,150 Descending Aus ATC (RADAR)
Thu 01:12:17 AM -34.0410 152.7590 255° West 438 504 30,000 -2,743 Descending FlightAware ADS-B
Thu 01:13:02 AM -34.0610 152.6590 256° West 438 504 28,200 -2,400 Descending FlightAware ADS-B
Thu 01:13:32 AM -34.0760 152.5910 255° West 433 498 27,000 -2,509 Descending FlightAware ADS-B
Thu 01:13:57 AM -34.0790 152.5280 267° West 439 505 25,900 -2,677 Descending FlightAware ADS-B
Thu 01:14:37 AM -34.0690 152.4320 277° West 433 498 24,100 -2,824 Descending FlightAware ADS-B
Thu 01:15:22 AM -34.0590 152.3200 276° West 425 489 21,900 -2,800 Descending FlightAware ADS-B
Thu 01:15:52 AM -34.0520 152.2520 277° West 420 483 20,600 -2,694 Descending FlightAware ADS-B
Thu 01:16:11 AM -34.0472 152.1955 277° West 413 475 19,700 -2,824 Descending Aus ATC (RADAR)
Thu 01:16:26 AM -34.0439 152.1609 277° West 411 473 19,000 -2,833 Descending Aus ATC (RADAR)
Thu 01:16:47 AM -34.0400 152.1270 277° West 412 474 18,000 -3,000 Descending FlightAware ADS-B
Thu 01:17:42 AM -34.0280 152.0010 277° West 404 465 15,200 -2,905 Descending FlightAware ADS-B
Thu 01:18:22 AM -34.0190 151.9160 277° West 398 458 13,400 -2,775 Descending FlightAware ADS-B
Thu 01:19:02 AM -34.0100 151.8240 277° West 373 429 11,500 -1,906 Descending FlightAware ADS-B
Thu 01:19:47 AM -34.0020 151.7380 276° West 318 366 10,700 -918 Descending FlightAware ADS-B
Thu 01:20:27 AM -33.9960 151.6740 276° West 290 334 10,200 -712 Descending FlightAware ADS-B
Thu 01:20:46 AM -33.9913 151.6359 276° West 283 326 10,000 -1,400 Descending Aus ATC (RADAR)
Thu 01:20:57 AM -33.9900 151.6260 276° West 292 336 9,500 -1,833 Descending FlightAware ADS-B
Thu 01:21:22 AM -33.9860 151.5870 277° West 287 330 8,900 -1,200 Descending FlightAware ADS-B
Thu 01:21:52 AM -33.9810 151.5440 278° West 274 315 8,400 -933 Descending FlightAware ADS-B
Thu 01:22:07 AM -33.9780 151.5170 278° West 261 300 8,200 -545 Descending FlightAware ADS-B
Thu 01:22:25 AM -33.9758 151.4834 278° West 260 299 8,100 -1,200 Descending Aus ATC (RADAR)
Thu 01:22:32 AM -33.9760 151.4820 278° West 262 302 7,700 -2,108 Descending FlightAware ADS-B
Thu 01:23:02 AM -33.9710 151.4400 278° West 269 310 6,800 -1,714 Descending FlightAware ADS-B
Thu 01:23:07 AM -33.9700 151.4280 276° West 269 310 6,700 -1,500 Descending FlightAware ADS-B
Thu 01:23:42 AM -33.9630 151.3760 279° West 266 306 5,800 -923 Descending FlightAware ADS-B
Thu 01:24:12 AM -33.9590 151.3360 277° West 262 302 5,700 -100 Descending FlightAware ADS-B
Thu 01:24:42 AM -33.9380 151.2960 302° West 276 318 5,700 333 Level FlightAware ADS-B
Thu 01:25:06 AM -33.9053 151.2831 302° West 271 312 6,000  Climbing Aus ATC (RADAR)
Thu 01:25:07 AM -33.9100 151.2850 302° West 263 303 5,700 -581 Descending FlightAware ADS-B
Thu 01:25:37 AM -33.8810 151.2740 343° North 235 270 5,700 -771 Level FlightAware ADS-B
Thu 01:26:17 AM -33.8300 151.2570 345° North 249 287 4,800 -1,114 Descending FlightAware ADS-B
Thu 01:26:47 AM -33.7990 151.2460 344° North 248 285 4,400 -655 Descending FlightAware ADS-B
Thu 01:27:12 AM -33.7720 151.2370 345° North 248 285 4,200 -545 Descending FlightAware ADS-B
Thu 01:27:42 AM -33.7430 151.2210 335° Northwest 242 278 3,900 -600 Descending FlightAware ADS-B
Thu 01:27:52 AM -33.7370 151.2080 299° West 238 274 3,800 -698 Descending FlightAware ADS-B
Thu 01:28:25 AM -33.7352 151.1594 299° West 224 258 3,400 -1,333 Descending Aus ATC (RADAR)
Thu 01:28:37 AM -33.7370 151.1520 299° West 223 257 2,800 -1,909 Descending FlightAware ADS-B
Thu 01:28:47 AM -33.7420 151.1400 243° Southwest 213 245 2,700 -200 Descending FlightAware ADS-B
Thu 01:29:07 AM -33.7580 151.1300 207° Southwest 176 203 2,700  Level FlightAware ADS-B
Thu 01:29:32 AM -33.7770 151.1320 175° South 163 188 2,700 -150 Level FlightAware ADS-B
Thu 01:29:47 AM -33.7860 151.1340 170° South 161 185 2,600 -800 Descending FlightAware ADS-B
Thu 01:30:17 AM -33.8110 151.1410 167° South 165 190 2,100 -982 Descending FlightAware ADS-B
Thu 01:30:42 AM -33.8300 151.1460 168° South 164 189 1,700 -873 Descending FlightAware ADS-B
Thu 01:31:12 AM -33.8510 151.1510 169° South 147 169 1,300 -764 Descending FlightAware ADS-B
Thu 01:31:37 AM -33.8660 151.1550 168° South 133 153 1,000 -764 Descending FlightAware ADS-B
Thu 01:32:07 AM -33.8860 151.1600 168° South 135 155 600 -667 Descending FlightAware ADS-B
Thu 01:32:22 AM -33.8940 151.1620 168° South 133 153 500 -316 Descending FlightAware ADS-B
Thu 01:32:45 AM -33.9131 151.1674 168° South 139 160 400 -261 Descending Aus ATC (RADAR)
Thu 01:33:02 AM -33.9220 151.1700 168° South 132 152 -1,412 Descending FlightAware ADS-B
Thu 01:33:32 AM -33.9390 151.1740 169° South 100 115  Level FlightAware ADS-B
Thu 01:33:57 AM -33.9460 151.1760 167° South 33 38  Level FlightAware ADS-B

Login

Don't have an account? Register now (free) for customized features, flight alerts, and more!